sensor_id;sensor_type;location;lat;lon;timestamp;pressure;altitude;pressure_sealevel;temperature;humidity
77450;BME280;66536;53.150;18.172;2023-12-20T00:00:01;100428.67;;;6.40;99.74
77450;BME280;66536;53.150;18.172;2023-12-20T00:02:27;100430.23;;;6.41;99.76
77450;BME280;66536;53.150;18.172;2023-12-20T00:04:53;100425.17;;;6.42;99.76
77450;BME280;66536;53.150;18.172;2023-12-20T00:07:19;100420.98;;;6.42;99.78
77450;BME280;66536;53.150;18.172;2023-12-20T00:09:45;100422.50;;;6.43;99.72
77450;BME280;66536;53.150;18.172;2023-12-20T00:12:11;100426.23;;;6.42;99.64
77450;BME280;66536;53.150;18.172;2023-12-20T00:14:37;100425.39;;;6.40;99.72
77450;BME280;66536;53.150;18.172;2023-12-20T00:17:04;100425.95;;;6.41;99.86
77450;BME280;66536;53.150;18.172;2023-12-20T00:19:30;100424.06;;;6.41;99.89
77450;BME280;66536;53.150;18.172;2023-12-20T00:21:56;100431.86;;;6.42;99.89
77450;BME280;66536;53.150;18.172;2023-12-20T00:24:22;100427.31;;;6.43;99.91
77450;BME280;66536;53.150;18.172;2023-12-20T00:26:48;100421.50;;;6.42;99.86
77450;BME280;66536;53.150;18.172;2023-12-20T00:29:17;100421.34;;;6.44;99.89
77450;BME280;66536;53.150;18.172;2023-12-20T00:31:44;100412.80;;;6.44;99.93
77450;BME280;66536;53.150;18.172;2023-12-20T00:34:10;100411.23;;;6.44;99.82
77450;BME280;66536;53.150;18.172;2023-12-20T00:36:36;100405.77;;;6.42;99.85
77450;BME280;66536;53.150;18.172;2023-12-20T00:39:02;100402.19;;;6.42;99.93
77450;BME280;66536;53.150;18.172;2023-12-20T00:41:29;100399.66;;;6.42;99.94
77450;BME280;66536;53.150;18.172;2023-12-20T00:43:55;100398.64;;;6.43;99.96
77450;BME280;66536;53.150;18.172;2023-12-20T00:46:21;100394.26;;;6.44;100.00
77450;BME280;66536;53.150;18.172;2023-12-20T00:48:47;100400.02;;;6.44;99.94
77450;BME280;66536;53.150;18.172;2023-12-20T00:51:13;100401.46;;;6.45;99.94
77450;BME280;66536;53.150;18.172;2023-12-20T00:53:39;100403.33;;;6.45;99.97
77450;BME280;66536;53.150;18.172;2023-12-20T00:56:05;100404.16;;;6.46;99.92
77450;BME280;66536;53.150;18.172;2023-12-20T00:58:32;100398.02;;;6.45;99.93
77450;BME280;66536;53.150;18.172;2023-12-20T01:00:58;100396.13;;;6.45;99.96
77450;BME280;66536;53.150;18.172;2023-12-20T01:03:24;100397.41;;;6.46;100.00
77450;BME280;66536;53.150;18.172;2023-12-20T01:05:50;100400.52;;;6.47;99.94
77450;BME280;66536;53.150;18.172;2023-12-20T01:08:16;100396.91;;;6.47;99.97
77450;BME280;66536;53.150;18.172;2023-12-20T01:10:42;100392.36;;;6.48;99.93
77450;BME280;66536;53.150;18.172;2023-12-20T01:13:08;100389.23;;;6.48;99.93
77450;BME280;66536;53.150;18.172;2023-12-20T01:15:34;100383.62;;;6.48;99.85
77450;BME280;66536;53.150;18.172;2023-12-20T01:18:00;100382.86;;;6.49;99.98
77450;BME280;66536;53.150;18.172;2023-12-20T01:20:27;100377.34;;;6.49;99.94
77450;BME280;66536;53.150;18.172;2023-12-20T01:22:56;100378.80;;;6.48;99.97
77450;BME280;66536;53.150;18.172;2023-12-20T01:25:22;100378.61;;;6.48;99.95
77450;BME280;66536;53.150;18.172;2023-12-20T01:27:48;100375.95;;;6.48;99.98
77450;BME280;66536;53.150;18.172;2023-12-20T01:30:14;100375.30;;;6.46;100.00
77450;BME280;66536;53.150;18.172;2023-12-20T01:32:40;100374.11;;;6.46;99.99
77450;BME280;66536;53.150;18.172;2023-12-20T01:35:07;100377.05;;;6.46;100.00
77450;BME280;66536;53.150;18.172;2023-12-20T01:37:33;100372.56;;;6.46;100.00
77450;BME280;66536;53.150;18.172;2023-12-20T01:39:59;100365.98;;;6.48;100.00
77450;BME280;66536;53.150;18.172;2023-12-20T01:42:25;100365.63;;;6.48;100.00
77450;BME280;66536;53.150;18.172;2023-12-20T01:44:51;100363.77;;;6.48;100.00
77450;BME280;66536;53.150;18.172;2023-12-20T01:47:17;100355.49;;;6.48;100.00
77450;BME280;66536;53.150;18.172;2023-12-20T01:49:44;100356.38;;;6.49;100.00
77450;BME280;66536;53.150;18.172;2023-12-20T01:52:10;100354.08;;;6.49;100.00
77450;BME280;66536;53.150;18.172;2023-12-20T01:54:37;100354.71;;;6.49;100.00
77450;BME280;66536;53.150;18.172;2023-12-20T01:57:04;100351.20;;;6.50;100.00
77450;BME280;66536;53.150;18.172;2023-12-20T01:59:32;100346.77;;;6.51;100.00
77450;BME280;66536;53.150;18.172;2023-12-20T02:01:58;100345.20;;;6.51;100.00
77450;BME280;66536;53.150;18.172;2023-12-20T02:04:25;100348.33;;;6.52;100.00
77450;BME280;66536;53.150;18.172;2023-12-20T02:06:52;100348.38;;;6.53;100.00
77450;BME280;66536;53.150;18.172;2023-12-20T02:09:22;100353.36;;;6.54;100.00
77450;BME280;66536;53.150;18.172;2023-12-20T02:11:49;100349.83;;;6.54;100.00
77450;BME280;66536;53.150;18.172;2023-12-20T02:14:16;100351.19;;;6.54;100.00
77450;BME280;66536;53.150;18.172;2023-12-20T02:16:42;100352.85;;;6.54;100.00
77450;BME280;66536;53.150;18.172;2023-12-20T02:19:13;100345.88;;;6.54;100.00
77450;BME280;66536;53.150;18.172;2023-12-20T02:21:40;100336.11;;;6.52;100.00
77450;BME280;66536;53.150;18.172;2023-12-20T02:24:06;100330.10;;;6.52;100.00
77450;BME280;66536;53.150;18.172;2023-12-20T02:26:33;100326.22;;;6.52;100.00
77450;BME280;66536;53.150;18.172;2023-12-20T02:29:00;100328.59;;;6.52;100.00
77450;BME280;66536;53.150;18.172;2023-12-20T02:31:26;100331.30;;;6.51;100.00
77450;BME280;66536;53.150;18.172;2023-12-20T02:33:52;100330.09;;;6.49;100.00
77450;BME280;66536;53.150;18.172;2023-12-20T02:36:18;100332.84;;;6.47;100.00
77450;BME280;66536;53.150;18.172;2023-12-20T02:38:44;100328.20;;;6.46;100.00
77450;BME280;66536;53.150;18.172;2023-12-20T02:41:10;100328.50;;;6.45;100.00
77450;BME280;66536;53.150;18.172;2023-12-20T02:43:37;100324.27;;;6.43;100.00
77450;BME280;66536;53.150;18.172;2023-12-20T02:46:03;100324.98;;;6.43;100.00
77450;BME280;66536;53.150;18.172;2023-12-20T02:48:29;100325.88;;;6.41;100.00
77450;BME280;66536;53.150;18.172;2023-12-20T02:50:55;100324.56;;;6.41;100.00
77450;BME280;66536;53.150;18.172;2023-12-20T02:53:21;100322.77;;;6.40;100.00
77450;BME280;66536;53.150;18.172;2023-12-20T02:55:47;100322.10;;;6.40;100.00
77450;BME280;66536;53.150;18.172;2023-12-20T02:58:13;100322.45;;;6.40;100.00
77450;BME280;66536;53.150;18.172;2023-12-20T03:00:39;100322.62;;;6.40;100.00
77450;BME280;66536;53.150;18.172;2023-12-20T03:03:05;100322.22;;;6.40;100.00
77450;BME280;66536;53.150;18.172;2023-12-20T03:05:31;100321.55;;;6.40;100.00
77450;BME280;66536;53.150;18.172;2023-12-20T03:07:58;100316.98;;;6.40;100.00
77450;BME280;66536;53.150;18.172;2023-12-20T03:10:24;100308.23;;;6.40;100.00
77450;BME280;66536;53.150;18.172;2023-12-20T03:12:50;100305.70;;;6.39;100.00
77450;BME280;66536;53.150;18.172;2023-12-20T03:15:16;100305.09;;;6.39;100.00
77450;BME280;66536;53.150;18.172;2023-12-20T03:17:42;100307.33;;;6.38;100.00
77450;BME280;66536;53.150;18.172;2023-12-20T03:20:08;100309.52;;;6.38;100.00
77450;BME280;66536;53.150;18.172;2023-12-20T03:22:35;100311.13;;;6.36;100.00
77450;BME280;66536;53.150;18.172;2023-12-20T03:25:01;100306.50;;;6.36;100.00
77450;BME280;66536;53.150;18.172;2023-12-20T03:27:27;100310.54;;;6.36;100.00
77450;BME280;66536;53.150;18.172;2023-12-20T03:29:53;100307.06;;;6.37;100.00
77450;BME280;66536;53.150;18.172;2023-12-20T03:32:19;100307.58;;;6.38;100.00
77450;BME280;66536;53.150;18.172;2023-12-20T03:34:45;100302.27;;;6.38;100.00
77450;BME280;66536;53.150;18.172;2023-12-20T03:37:12;100300.02;;;6.38;100.00
77450;BME280;66536;53.150;18.172;2023-12-20T03:39:38;100303.52;;;6.38;100.00
77450;BME280;66536;53.150;18.172;2023-12-20T03:42:06;100301.64;;;6.36;100.00
77450;BME280;66536;53.150;18.172;2023-12-20T03:44:32;100294.55;;;6.35;100.00
77450;BME280;66536;53.150;18.172;2023-12-20T03:46:58;100298.43;;;6.36;100.00
77450;BME280;66536;53.150;18.172;2023-12-20T03:49:24;100299.87;;;6.37;100.00
77450;BME280;66536;53.150;18.172;2023-12-20T03:51:50;100304.88;;;6.38;100.00
77450;BME280;66536;53.150;18.172;2023-12-20T03:54:16;100297.65;;;6.38;100.00
77450;BME280;66536;53.150;18.172;2023-12-20T03:56:42;100300.08;;;6.38;100.00
77450;BME280;66536;53.150;18.172;2023-12-20T03:59:08;100298.80;;;6.38;100.00
77450;BME280;66536;53.150;18.172;2023-12-20T04:01:34;100302.41;;;6.40;100.00
77450;BME280;66536;53.150;18.172;2023-12-20T04:04:00;100304.67;;;6.41;100.00
77450;BME280;66536;53.150;18.172;2023-12-20T04:06:26;100302.38;;;6.41;100.00
77450;BME280;66536;53.150;18.172;2023-12-20T04:08:52;100299.45;;;6.40;100.00
77450;BME280;66536;53.150;18.172;2023-12-20T04:11:18;100298.03;;;6.40;100.00
77450;BME280;66536;53.150;18.172;2023-12-20T04:13:44;100304.31;;;6.41;100.00
77450;BME280;66536;53.150;18.172;2023-12-20T04:16:12;100302.61;;;6.41;100.00
77450;BME280;66536;53.150;18.172;2023-12-20T04:18:38;100300.80;;;6.40;100.00
77450;BME280;66536;53.150;18.172;2023-12-20T04:21:04;100302.84;;;6.40;100.00
77450;BME280;66536;53.150;18.172;2023-12-20T04:23:30;100294.85;;;6.40;100.00
77450;BME280;66536;53.150;18.172;2023-12-20T04:25:56;100293.94;;;6.39;100.00
77450;BME280;66536;53.150;18.172;2023-12-20T04:28:22;100295.67;;;6.39;100.00
77450;BME280;66536;53.150;18.172;2023-12-20T04:30:48;100298.05;;;6.38;100.00
77450;BME280;66536;53.150;18.172;2023-12-20T04:33:14;100297.62;;;6.38;100.00
77450;BME280;66536;53.150;18.172;2023-12-20T04:35:40;100300.59;;;6.38;100.00
77450;BME280;66536;53.150;18.172;2023-12-20T04:38:09;100299.47;;;6.37;100.00
77450;BME280;66536;53.150;18.172;2023-12-20T04:40:35;100301.58;;;6.37;100.00
77450;BME280;66536;53.150;18.172;2023-12-20T04:43:01;100301.00;;;6.36;100.00
77450;BME280;66536;53.150;18.172;2023-12-20T04:45:27;100301.99;;;6.35;100.00
77450;BME280;66536;53.150;18.172;2023-12-20T04:47:53;100301.20;;;6.34;100.00
77450;BME280;66536;53.150;18.172;2023-12-20T04:50:19;100305.17;;;6.33;100.00
77450;BME280;66536;53.150;18.172;2023-12-20T04:52:47;100301.05;;;6.31;100.00
77450;BME280;66536;53.150;18.172;2023-12-20T04:55:13;100309.22;;;6.30;100.00
77450;BME280;66536;53.150;18.172;2023-12-20T04:57:39;100309.66;;;6.30;100.00
77450;BME280;66536;53.150;18.172;2023-12-20T05:00:06;100311.55;;;6.30;100.00
77450;BME280;66536;53.150;18.172;2023-12-20T05:02:35;100308.27;;;6.29;100.00
77450;BME280;66536;53.150;18.172;2023-12-20T05:05:02;100305.10;;;6.28;100.00
77450;BME280;66536;53.150;18.172;2023-12-20T05:07:28;100309.20;;;6.27;100.00
77450;BME280;66536;53.150;18.172;2023-12-20T05:09:54;100315.67;;;6.25;100.00
77450;BME280;66536;53.150;18.172;2023-12-20T05:12:20;100316.50;;;6.24;100.00
77450;BME280;66536;53.150;18.172;2023-12-20T05:14:46;100312.90;;;6.24;100.00
77450;BME280;66536;53.150;18.172;2023-12-20T05:17:12;100310.89;;;6.24;100.00
77450;BME280;66536;53.150;18.172;2023-12-20T05:19:38;100312.17;;;6.22;100.00
77450;BME280;66536;53.150;18.172;2023-12-20T05:22:04;100313.48;;;6.22;100.00
77450;BME280;66536;53.150;18.172;2023-12-20T05:24:30;100311.20;;;6.23;100.00
77450;BME280;66536;53.150;18.172;2023-12-20T05:26:57;100307.84;;;6.24;100.00
77450;BME280;66536;53.150;18.172;2023-12-20T05:29:23;100309.42;;;6.25;100.00
77450;BME280;66536;53.150;18.172;2023-12-20T05:31:49;100305.83;;;6.25;100.00
77450;BME280;66536;53.150;18.172;2023-12-20T05:34:15;100307.74;;;6.26;100.00
77450;BME280;66536;53.150;18.172;2023-12-20T05:36:41;100305.40;;;6.27;100.00
77450;BME280;66536;53.150;18.172;2023-12-20T05:39:07;100310.27;;;6.26;100.00
77450;BME280;66536;53.150;18.172;2023-12-20T05:41:33;100315.72;;;6.25;100.00
77450;BME280;66536;53.150;18.172;2023-12-20T05:44:00;100317.45;;;6.24;100.00
77450;BME280;66536;53.150;18.172;2023-12-20T05:46:28;100313.40;;;6.22;99.85
77450;BME280;66536;53.150;18.172;2023-12-20T05:48:54;100306.56;;;6.19;99.67
77450;BME280;66536;53.150;18.172;2023-12-20T05:51:23;100314.18;;;6.15;99.60
77450;BME280;66536;53.150;18.172;2023-12-20T05:53:49;100311.29;;;6.14;99.63
77450;BME280;66536;53.150;18.172;2023-12-20T05:56:15;100307.61;;;6.10;99.48
77450;BME280;66536;53.150;18.172;2023-12-20T05:58:41;100308.65;;;6.06;99.65
77450;BME280;66536;53.150;18.172;2023-12-20T06:01:08;100313.70;;;6.01;99.35
77450;BME280;66536;53.150;18.172;2023-12-20T06:03:34;100314.28;;;5.95;99.41
77450;BME280;66536;53.150;18.172;2023-12-20T06:06:08;100318.66;;;5.88;99.32
77450;BME280;66536;53.150;18.172;2023-12-20T06:08:36;100314.14;;;5.80;99.01
77450;BME280;66536;53.150;18.172;2023-12-20T06:11:02;100310.98;;;5.73;98.91
77450;BME280;66536;53.150;18.172;2023-12-20T06:13:28;100304.83;;;5.66;99.01
77450;BME280;66536;53.150;18.172;2023-12-20T06:15:55;100306.56;;;5.60;99.20
77450;BME280;66536;53.150;18.172;2023-12-20T06:18:21;100302.98;;;5.54;99.11
77450;BME280;66536;53.150;18.172;2023-12-20T06:43:43;100324.48;;;5.07;100.00
77450;BME280;66536;53.150;18.172;2023-12-20T06:46:10;100327.81;;;5.02;100.00
77450;BME280;66536;53.150;18.172;2023-12-20T06:48:37;100324.29;;;5.00;100.00
77450;BME280;66536;53.150;18.172;2023-12-20T06:51:03;100317.67;;;4.98;100.00
77450;BME280;66536;53.150;18.172;2023-12-20T06:53:30;100310.81;;;4.95;100.00
77450;BME280;66536;53.150;18.172;2023-12-20T06:55:56;100310.63;;;4.94;100.00
77450;BME280;66536;53.150;18.172;2023-12-20T06:58:23;100307.77;;;4.92;100.00
77450;BME280;66536;53.150;18.172;2023-12-20T07:00:50;100307.02;;;4.90;100.00
77450;BME280;66536;53.150;18.172;2023-12-20T07:03:18;100312.04;;;4.89;100.00
77450;BME280;66536;53.150;18.172;2023-12-20T07:05:46;100316.50;;;4.94;100.00
77450;BME280;66536;53.150;18.172;2023-12-20T07:08:13;100324.38;;;4.95;100.00
77450;BME280;66536;53.150;18.172;2023-12-20T07:10:40;100325.30;;;4.93;100.00
77450;BME280;66536;53.150;18.172;2023-12-20T07:13:06;100323.44;;;4.90;100.00
77450;BME280;66536;53.150;18.172;2023-12-20T07:15:33;100327.33;;;4.86;100.00
77450;BME280;66536;53.150;18.172;2023-12-20T07:17:59;100324.46;;;4.81;100.00
77450;BME280;66536;53.150;18.172;2023-12-20T07:20:26;100329.41;;;4.79;100.00
77450;BME280;66536;53.150;18.172;2023-12-20T07:22:53;100330.89;;;4.74;100.00
77450;BME280;66536;53.150;18.172;2023-12-20T07:25:19;100333.25;;;4.72;100.00
77450;BME280;66536;53.150;18.172;2023-12-20T07:27:46;100336.54;;;4.70;100.00
77450;BME280;66536;53.150;18.172;2023-12-20T07:30:13;100341.33;;;4.69;100.00
77450;BME280;66536;53.150;18.172;2023-12-20T07:32:39;100340.33;;;4.67;99.99
77450;BME280;66536;53.150;18.172;2023-12-20T07:35:05;100339.29;;;4.66;100.00
77450;BME280;66536;53.150;18.172;2023-12-20T07:37:31;100337.23;;;4.65;100.00
77450;BME280;66536;53.150;18.172;2023-12-20T07:39:57;100338.55;;;4.66;100.00
77450;BME280;66536;53.150;18.172;2023-12-20T07:42:23;100339.06;;;4.66;100.00
77450;BME280;66536;53.150;18.172;2023-12-20T07:44:50;100339.38;;;4.66;100.00
77450;BME280;66536;53.150;18.172;2023-12-20T07:47:17;100338.05;;;4.67;100.00
77450;BME280;66536;53.150;18.172;2023-12-20T07:49:48;100330.77;;;4.68;100.00
77450;BME280;66536;53.150;18.172;2023-12-20T07:52:15;100327.18;;;4.68;100.00
77450;BME280;66536;53.150;18.172;2023-12-20T07:54:41;100333.05;;;4.69;100.00
77450;BME280;66536;53.150;18.172;2023-12-20T07:57:07;100328.45;;;4.69;100.00
77450;BME280;66536;53.150;18.172;2023-12-20T07:59:33;100324.44;;;4.70;100.00
77450;BME280;66536;53.150;18.172;2023-12-20T08:01:59;100323.91;;;4.69;100.00
77450;BME280;66536;53.150;18.172;2023-12-20T08:04:25;100326.23;;;4.68;100.00
77450;BME280;66536;53.150;18.172;2023-12-20T08:06:51;100325.13;;;4.65;100.00
77450;BME280;66536;53.150;18.172;2023-12-20T08:09:19;100327.00;;;4.64;100.00
77450;BME280;66536;53.150;18.172;2023-12-20T08:11:46;100328.20;;;4.63;100.00
77450;BME280;66536;53.150;18.172;2023-12-20T08:14:13;100328.59;;;4.62;100.00
77450;BME280;66536;53.150;18.172;2023-12-20T08:16:40;100321.06;;;4.62;100.00
77450;BME280;66536;53.150;18.172;2023-12-20T08:19:06;100321.88;;;4.64;100.00
77450;BME280;66536;53.150;18.172;2023-12-20T08:21:32;100315.05;;;4.64;99.84
77450;BME280;66536;53.150;18.172;2023-12-20T08:23:58;100318.41;;;4.64;99.74
77450;BME280;66536;53.150;18.172;2023-12-20T08:26:26;100321.26;;;4.65;99.59
77450;BME280;66536;53.150;18.172;2023-12-20T08:28:55;100319.10;;;4.66;99.59
77450;BME280;66536;53.150;18.172;2023-12-20T08:31:24;100315.60;;;4.66;99.29
77450;BME280;66536;53.150;18.172;2023-12-20T08:33:51;100315.70;;;4.69;99.30
77450;BME280;66536;53.150;18.172;2023-12-20T08:36:20;100312.73;;;4.73;99.26
77450;BME280;66536;53.150;18.172;2023-12-20T08:38:48;100311.67;;;4.80;99.06
77450;BME280;66536;53.150;18.172;2023-12-20T08:41:16;100313.89;;;4.84;99.11
77450;BME280;66536;53.150;18.172;2023-12-20T08:43:43;100309.06;;;4.86;98.93
77450;BME280;66536;53.150;18.172;2023-12-20T08:46:09;100318.77;;;4.86;98.95
77450;BME280;66536;53.150;18.172;2023-12-20T08:48:36;100318.96;;;4.86;98.89
77450;BME280;66536;53.150;18.172;2023-12-20T08:51:06;100316.92;;;4.86;98.86
77450;BME280;66536;53.150;18.172;2023-12-20T08:53:34;100313.90;;;4.87;98.84
77450;BME280;66536;53.150;18.172;2023-12-20T08:56:02;100305.94;;;4.88;98.94
77450;BME280;66536;53.150;18.172;2023-12-20T08:58:29;100308.35;;;4.90;98.96
77450;BME280;66536;53.150;18.172;2023-12-20T09:00:56;100301.32;;;4.93;98.78
77450;BME280;66536;53.150;18.172;2023-12-20T09:03:23;100304.25;;;4.97;98.83
77450;BME280;66536;53.150;18.172;2023-12-20T09:05:49;100303.71;;;5.02;98.56
77450;BME280;66536;53.150;18.172;2023-12-20T09:08:15;100302.81;;;5.07;98.42
77450;BME280;66536;53.150;18.172;2023-12-20T09:10:41;100301.91;;;5.14;98.30
77450;BME280;66536;53.150;18.172;2023-12-20T09:13:35;100293.51;;;5.21;97.42
77450;BME280;66536;53.150;18.172;2023-12-20T09:16:13;100287.66;;;5.28;97.35
77450;BME280;66536;53.150;18.172;2023-12-20T09:18:42;100289.09;;;5.36;97.03
77450;BME280;66536;53.150;18.172;2023-12-20T09:21:08;100293.60;;;5.44;96.60
77450;BME280;66536;53.150;18.172;2023-12-20T09:23:34;100300.61;;;5.51;95.61
77450;BME280;66536;53.150;18.172;2023-12-20T09:26:03;100297.25;;;5.62;95.63
77450;BME280;66536;53.150;18.172;2023-12-20T09:28:30;100283.45;;;5.72;95.57
77450;BME280;66536;53.150;18.172;2023-12-20T09:30:58;100275.75;;;5.78;94.76
77450;BME280;66536;53.150;18.172;2023-12-20T09:33:24;100280.51;;;5.82;93.41
77450;BME280;66536;53.150;18.172;2023-12-20T09:35:50;100276.53;;;5.91;92.75
77450;BME280;66536;53.150;18.172;2023-12-20T09:38:17;100271.10;;;5.95;91.89
77450;BME280;66536;53.150;18.172;2023-12-20T09:40:43;100271.47;;;5.98;92.28
77450;BME280;66536;53.150;18.172;2023-12-20T09:43:15;100275.33;;;6.09;91.94
77450;BME280;66536;53.150;18.172;2023-12-20T09:45:46;100276.67;;;6.24;92.16
77450;BME280;66536;53.150;18.172;2023-12-20T09:48:13;100284.08;;;6.31;90.63
77450;BME280;66536;53.150;18.172;2023-12-20T09:50:40;100276.35;;;6.33;90.24
77450;BME280;66536;53.150;18.172;2023-12-20T09:53:10;100267.45;;;6.37;90.51
77450;BME280;66536;53.150;18.172;2023-12-20T09:55:38;100261.11;;;6.45;89.79
77450;BME280;66536;53.150;18.172;2023-12-20T09:58:05;100238.08;;;6.40;87.39
77450;BME280;66536;53.150;18.172;2023-12-20T10:00:32;100250.14;;;6.40;87.56
77450;BME280;66536;53.150;18.172;2023-12-20T10:03:00;100250.70;;;6.48;88.39
77450;BME280;66536;53.150;18.172;2023-12-20T10:05:30;100245.67;;;6.53;87.21
77450;BME280;66536;53.150;18.172;2023-12-20T10:07:57;100234.21;;;6.59;88.03
77450;BME280;66536;53.150;18.172;2023-12-20T10:10:25;100235.44;;;6.67;87.56
77450;BME280;66536;53.150;18.172;2023-12-20T10:13:06;100231.48;;;6.65;87.60
77450;BME280;66536;53.150;18.172;2023-12-20T10:15:34;100228.79;;;6.65;87.58
77450;BME280;66536;53.150;18.172;2023-12-20T10:18:01;100221.27;;;6.77;86.05
77450;BME280;66536;53.150;18.172;2023-12-20T10:20:28;100225.83;;;6.92;84.19
77450;BME280;66536;53.150;18.172;2023-12-20T10:22:56;100223.16;;;7.09;86.02
77450;BME280;66536;53.150;18.172;2023-12-20T10:25:22;100209.86;;;7.30;85.40
77450;BME280;66536;53.150;18.172;2023-12-20T10:27:50;100208.64;;;7.40;85.02
77450;BME280;66536;53.150;18.172;2023-12-20T10:30:16;100209.04;;;7.53;85.31
77450;BME280;66536;53.150;18.172;2023-12-20T10:32:43;100205.44;;;7.54;83.56
77450;BME280;66536;53.150;18.172;2023-12-20T10:35:53;100192.69;;;7.48;84.83
77450;BME280;66536;53.150;18.172;2023-12-20T10:38:20;100182.17;;;7.37;84.14
77450;BME280;66536;53.150;18.172;2023-12-20T10:40:46;100185.93;;;7.29;85.61
77450;BME280;66536;53.150;18.172;2023-12-20T10:43:13;100182.13;;;7.28;86.49
77450;BME280;66536;53.150;18.172;2023-12-20T10:46:19;100177.80;;;7.22;83.88
77450;BME280;66536;53.150;18.172;2023-12-20T10:50:11;100169.67;;;7.09;84.60
77450;BME280;66536;53.150;18.172;2023-12-20T10:52:37;100166.35;;;7.04;84.68
77450;BME280;66536;53.150;18.172;2023-12-20T10:55:08;100165.15;;;7.01;84.95
77450;BME280;66536;53.150;18.172;2023-12-20T10:58:06;100162.81;;;7.00;85.36
77450;BME280;66536;53.150;18.172;2023-12-20T11:00:38;100160.48;;;7.00;85.79
77450;BME280;66536;53.150;18.172;2023-12-20T11:03:08;100153.23;;;6.98;85.60
77450;BME280;66536;53.150;18.172;2023-12-20T11:05:49;100146.45;;;6.93;85.48
77450;BME280;66536;53.150;18.172;2023-12-20T11:08:28;100142.77;;;6.86;85.45
77450;BME280;66536;53.150;18.172;2023-12-20T11:11:06;100139.46;;;6.82;86.64
77450;BME280;66536;53.150;18.172;2023-12-20T11:13:41;100127.19;;;6.80;86.06
77450;BME280;66536;53.150;18.172;2023-12-20T11:16:10;100122.64;;;6.74;84.96
77450;BME280;66536;53.150;18.172;2023-12-20T11:18:36;100114.39;;;6.67;85.45
77450;BME280;66536;53.150;18.172;2023-12-20T11:21:05;100114.15;;;6.62;86.68
77450;BME280;66536;53.150;18.172;2023-12-20T11:23:32;100104.02;;;6.58;86.46
77450;BME280;66536;53.150;18.172;2023-12-20T11:26:01;100110.20;;;6.55;86.73
77450;BME280;66536;53.150;18.172;2023-12-20T11:28:29;100108.64;;;6.47;85.65
77450;BME280;66536;53.150;18.172;2023-12-20T11:30:57;100106.34;;;6.43;87.02
77450;BME280;66536;53.150;18.172;2023-12-20T11:33:30;100099.97;;;6.42;87.19
77450;BME280;66536;53.150;18.172;2023-12-20T11:35:58;100091.69;;;6.39;87.23
77450;BME280;66536;53.150;18.172;2023-12-20T11:38:26;100094.45;;;6.38;87.20
77450;BME280;66536;53.150;18.172;2023-12-20T11:40:54;100069.47;;;6.38;86.95
77450;BME280;66536;53.150;18.172;2023-12-20T11:43:31;100066.67;;;6.42;86.98
77450;BME280;66536;53.150;18.172;2023-12-20T11:46:05;100064.43;;;6.46;86.43
77450;BME280;66536;53.150;18.172;2023-12-20T11:48:33;100050.74;;;6.50;86.35
77450;BME280;66536;53.150;18.172;2023-12-20T11:51:02;100060.13;;;6.53;85.71
77450;BME280;66536;53.150;18.172;2023-12-20T11:53:31;100056.61;;;6.52;86.60
77450;BME280;66536;53.150;18.172;2023-12-20T11:56:01;100052.39;;;6.53;86.10
77450;BME280;66536;53.150;18.172;2023-12-20T11:58:29;100053.25;;;6.52;86.60
77450;BME280;66536;53.150;18.172;2023-12-20T12:00:56;100048.59;;;6.50;87.24
77450;BME280;66536;53.150;18.172;2023-12-20T12:03:23;100039.37;;;6.48;87.17
77450;BME280;66536;53.150;18.172;2023-12-20T12:05:50;100041.03;;;6.50;87.73
77450;BME280;66536;53.150;18.172;2023-12-20T12:08:19;100038.05;;;6.51;87.39
77450;BME280;66536;53.150;18.172;2023-12-20T12:11:17;100024.33;;;6.45;87.02
77450;BME280;66536;53.150;18.172;2023-12-20T12:13:47;100027.99;;;6.42;87.84
77450;BME280;66536;53.150;18.172;2023-12-20T12:16:17;100021.83;;;6.39;87.76
77450;BME280;66536;53.150;18.172;2023-12-20T12:18:46;100011.98;;;6.39;87.62
77450;BME280;66536;53.150;18.172;2023-12-20T12:21:20;100027.16;;;6.36;87.90
77450;BME280;66536;53.150;18.172;2023-12-20T12:23:47;100011.73;;;6.34;87.82
77450;BME280;66536;53.150;18.172;2023-12-20T12:26:16;100003.82;;;6.30;87.77
77450;BME280;66536;53.150;18.172;2023-12-20T12:28:47;100014.56;;;6.26;88.69
77450;BME280;66536;53.150;18.172;2023-12-20T12:31:14;100003.09;;;6.25;89.33
77450;BME280;66536;53.150;18.172;2023-12-20T12:33:42;100005.74;;;6.24;88.68
77450;BME280;66536;53.150;18.172;2023-12-20T12:36:10;100003.25;;;6.23;89.08
77450;BME280;66536;53.150;18.172;2023-12-20T12:38:38;99993.17;;;6.22;89.22
77450;BME280;66536;53.150;18.172;2023-12-20T12:41:04;99995.50;;;6.21;89.12
77450;BME280;66536;53.150;18.172;2023-12-20T12:43:31;99986.73;;;6.23;89.65
77450;BME280;66536;53.150;18.172;2023-12-20T12:45:57;99990.02;;;6.22;89.53
77450;BME280;66536;53.150;18.172;2023-12-20T12:48:24;99986.12;;;6.19;89.35
77450;BME280;66536;53.150;18.172;2023-12-20T12:50:51;99980.02;;;6.15;89.65
77450;BME280;66536;53.150;18.172;2023-12-20T12:53:25;99975.55;;;6.15;90.55
77450;BME280;66536;53.150;18.172;2023-12-20T12:56:01;99969.01;;;6.16;90.19
77450;BME280;66536;53.150;18.172;2023-12-20T12:58:27;99970.02;;;6.12;89.95
77450;BME280;66536;53.150;18.172;2023-12-20T13:00:53;99969.10;;;6.05;89.88
77450;BME280;66536;53.150;18.172;2023-12-20T13:03:21;99959.80;;;6.02;90.39
77450;BME280;66536;53.150;18.172;2023-12-20T13:05:47;99962.92;;;6.00;90.41
77450;BME280;66536;53.150;18.172;2023-12-20T13:08:14;99957.23;;;5.99;90.66
77450;BME280;66536;53.150;18.172;2023-12-20T13:10:42;99955.24;;;5.97;90.31